sensor_id;sensor_type;location;lat;lon;timestamp;P1;durP1;ratioP1;P2;durP2;ratioP2
76953;SDS011;65893;51.698;-0.292;2023-03-17T00:01:37;13.80;;;4.10;;
76953;SDS011;65893;51.698;-0.292;2023-03-17T00:04:04;12.68;;;5.03;;
76953;SDS011;65893;51.698;-0.292;2023-03-17T00:06:30;17.70;;;4.85;;
76953;SDS011;65893;51.698;-0.292;2023-03-17T00:08:58;16.17;;;5.18;;
76953;SDS011;65893;51.698;-0.292;2023-03-17T00:11:25;15.85;;;5.20;;
76953;SDS011;65893;51.698;-0.292;2023-03-17T00:13:52;18.17;;;5.18;;
76953;SDS011;65893;51.698;-0.292;2023-03-17T00:16:19;13.88;;;5.40;;
76953;SDS011;65893;51.698;-0.292;2023-03-17T00:18:47;15.63;;;5.10;;
76953;SDS011;65893;51.698;-0.292;2023-03-17T00:21:14;13.48;;;4.80;;
76953;SDS011;65893;51.698;-0.292;2023-03-17T00:23:42;16.20;;;5.32;;
76953;SDS011;65893;51.698;-0.292;2023-03-17T00:26:10;18.63;;;5.93;;
76953;SDS011;65893;51.698;-0.292;2023-03-17T00:28:36;21.42;;;5.55;;
76953;SDS011;65893;51.698;-0.292;2023-03-17T00:31:05;12.50;;;4.70;;
76953;SDS011;65893;51.698;-0.292;2023-03-17T00:33:35;16.92;;;4.97;;
76953;SDS011;65893;51.698;-0.292;2023-03-17T00:36:01;13.88;;;5.47;;
76953;SDS011;65893;51.698;-0.292;2023-03-17T00:38:27;18.92;;;5.10;;
76953;SDS011;65893;51.698;-0.292;2023-03-17T00:40:53;11.75;;;4.97;;
76953;SDS011;65893;51.698;-0.292;2023-03-17T00:43:20;14.90;;;4.72;;
76953;SDS011;65893;51.698;-0.292;2023-03-17T00:45:45;10.27;;;4.00;;
76953;SDS011;65893;51.698;-0.292;2023-03-17T00:48:16;10.40;;;2.95;;
76953;SDS011;65893;51.698;-0.292;2023-03-17T00:50:43;16.17;;;4.90;;
76953;SDS011;65893;51.698;-0.292;2023-03-17T00:53:14;12.43;;;4.43;;
76953;SDS011;65893;51.698;-0.292;2023-03-17T00:55:40;11.40;;;3.92;;
76953;SDS011;65893;51.698;-0.292;2023-03-17T00:58:29;10.57;;;3.78;;
76953;SDS011;65893;51.698;-0.292;2023-03-17T01:00:54;14.05;;;4.45;;
76953;SDS011;65893;51.698;-0.292;2023-03-17T01:03:20;11.38;;;3.75;;
76953;SDS011;65893;51.698;-0.292;2023-03-17T01:05:47;10.52;;;3.38;;
76953;SDS011;65893;51.698;-0.292;2023-03-17T01:08:14;11.40;;;3.22;;
76953;SDS011;65893;51.698;-0.292;2023-03-17T01:10:41;12.63;;;3.20;;
76953;SDS011;65893;51.698;-0.292;2023-03-17T01:13:09;9.32;;;2.85;;
76953;SDS011;65893;51.698;-0.292;2023-03-17T01:15:36;12.15;;;3.60;;
76953;SDS011;65893;51.698;-0.292;2023-03-17T01:18:04;12.43;;;2.78;;
76953;SDS011;65893;51.698;-0.292;2023-03-17T01:20:31;11.05;;;2.60;;
76953;SDS011;65893;51.698;-0.292;2023-03-17T01:22:57;8.30;;;2.75;;
76953;SDS011;65893;51.698;-0.292;2023-03-17T01:25:23;9.45;;;2.28;;
76953;SDS011;65893;51.698;-0.292;2023-03-17T01:27:49;6.00;;;2.47;;
76953;SDS011;65893;51.698;-0.292;2023-03-17T01:32:45;9.38;;;2.42;;
76953;SDS011;65893;51.698;-0.292;2023-03-17T01:35:12;6.45;;;2.38;;
76953;SDS011;65893;51.698;-0.292;2023-03-17T01:37:38;9.35;;;2.33;;
76953;SDS011;65893;51.698;-0.292;2023-03-17T01:40:05;7.68;;;2.30;;
76953;SDS011;65893;51.698;-0.292;2023-03-17T01:42:33;8.30;;;2.08;;
76953;SDS011;65893;51.698;-0.292;2023-03-17T01:45:05;7.15;;;2.00;;
76953;SDS011;65893;51.698;-0.292;2023-03-17T01:47:32;8.05;;;2.25;;
76953;SDS011;65893;51.698;-0.292;2023-03-17T01:49:58;8.05;;;2.17;;
76953;SDS011;65893;51.698;-0.292;2023-03-17T01:52:25;9.57;;;2.00;;
76953;SDS011;65893;51.698;-0.292;2023-03-17T01:55:06;6.25;;;1.73;;
76953;SDS011;65893;51.698;-0.292;2023-03-17T02:00:32;4.97;;;1.13;;
76953;SDS011;65893;51.698;-0.292;2023-03-17T02:02:58;5.65;;;1.60;;
76953;SDS011;65893;51.698;-0.292;2023-03-17T02:05:28;5.70;;;1.23;;
76953;SDS011;65893;51.698;-0.292;2023-03-17T02:07:56;2.60;;;1.17;;
76953;SDS011;65893;51.698;-0.292;2023-03-17T02:10:23;7.97;;;1.42;;
76953;SDS011;65893;51.698;-0.292;2023-03-17T02:12:50;3.40;;;1.17;;
76953;SDS011;65893;51.698;-0.292;2023-03-17T02:15:18;7.47;;;1.45;;
76953;SDS011;65893;51.698;-0.292;2023-03-17T02:17:44;7.88;;;1.30;;
76953;SDS011;65893;51.698;-0.292;2023-03-17T02:22:47;2.28;;;0.80;;
76953;SDS011;65893;51.698;-0.292;2023-03-17T02:27:41;3.42;;;1.00;;
76953;SDS011;65893;51.698;-0.292;2023-03-17T02:30:09;2.75;;;0.85;;
76953;SDS011;65893;51.698;-0.292;2023-03-17T02:32:37;4.20;;;1.13;;
76953;SDS011;65893;51.698;-0.292;2023-03-17T02:35:04;2.67;;;0.70;;
76953;SDS011;65893;51.698;-0.292;2023-03-17T02:37:31;5.45;;;1.20;;
76953;SDS011;65893;51.698;-0.292;2023-03-17T02:39:57;4.07;;;0.82;;
76953;SDS011;65893;51.698;-0.292;2023-03-17T02:42:25;2.33;;;0.75;;
76953;SDS011;65893;51.698;-0.292;2023-03-17T02:44:51;2.53;;;0.75;;
76953;SDS011;65893;51.698;-0.292;2023-03-17T02:47:17;8.13;;;0.95;;
76953;SDS011;65893;51.698;-0.292;2023-03-17T02:49:43;3.50;;;0.95;;
76953;SDS011;65893;51.698;-0.292;2023-03-17T02:52:10;2.65;;;0.70;;
76953;SDS011;65893;51.698;-0.292;2023-03-17T02:54:36;5.38;;;0.98;;
76953;SDS011;65893;51.698;-0.292;2023-03-17T02:57:02;3.78;;;0.75;;
76953;SDS011;65893;51.698;-0.292;2023-03-17T02:59:28;5.40;;;1.25;;
76953;SDS011;65893;51.698;-0.292;2023-03-17T03:01:55;4.15;;;0.73;;
76953;SDS011;65893;51.698;-0.292;2023-03-17T03:04:21;4.63;;;0.88;;
76953;SDS011;65893;51.698;-0.292;2023-03-17T03:06:48;3.58;;;0.57;;
76953;SDS011;65893;51.698;-0.292;2023-03-17T03:09:15;1.17;;;0.50;;
76953;SDS011;65893;51.698;-0.292;2023-03-17T03:11:42;4.45;;;0.95;;
76953;SDS011;65893;51.698;-0.292;2023-03-17T03:14:08;1.88;;;0.65;;
76953;SDS011;65893;51.698;-0.292;2023-03-17T03:16:35;6.15;;;1.00;;
76953;SDS011;65893;51.698;-0.292;2023-03-17T03:19:01;3.80;;;0.70;;
76953;SDS011;65893;51.698;-0.292;2023-03-17T03:21:27;3.67;;;1.00;;
76953;SDS011;65893;51.698;-0.292;2023-03-17T03:23:53;2.97;;;0.85;;
76953;SDS011;65893;51.698;-0.292;2023-03-17T03:26:19;4.40;;;0.98;;
76953;SDS011;65893;51.698;-0.292;2023-03-17T03:28:46;6.30;;;0.98;;
76953;SDS011;65893;51.698;-0.292;2023-03-17T03:31:12;3.88;;;0.80;;
76953;SDS011;65893;51.698;-0.292;2023-03-17T03:33:39;3.83;;;0.90;;
76953;SDS011;65893;51.698;-0.292;2023-03-17T03:36:06;5.53;;;1.30;;
76953;SDS011;65893;51.698;-0.292;2023-03-17T03:38:32;8.65;;;1.10;;
76953;SDS011;65893;51.698;-0.292;2023-03-17T03:40:58;5.85;;;1.98;;
76953;SDS011;65893;51.698;-0.292;2023-03-17T03:43:25;5.65;;;1.23;;
76953;SDS011;65893;51.698;-0.292;2023-03-17T03:45:51;3.67;;;1.25;;
76953;SDS011;65893;51.698;-0.292;2023-03-17T03:48:18;4.03;;;1.02;;
76953;SDS011;65893;51.698;-0.292;2023-03-17T03:50:45;6.35;;;1.40;;
76953;SDS011;65893;51.698;-0.292;2023-03-17T03:53:11;8.45;;;1.63;;
76953;SDS011;65893;51.698;-0.292;2023-03-17T03:55:37;6.32;;;1.55;;
76953;SDS011;65893;51.698;-0.292;2023-03-17T03:58:04;6.88;;;2.13;;
76953;SDS011;65893;51.698;-0.292;2023-03-17T04:00:30;5.15;;;1.50;;
76953;SDS011;65893;51.698;-0.292;2023-03-17T04:02:57;5.32;;;1.63;;
76953;SDS011;65893;51.698;-0.292;2023-03-17T04:05:23;6.57;;;1.63;;
76953;SDS011;65893;51.698;-0.292;2023-03-17T04:07:49;7.50;;;1.83;;
76953;SDS011;65893;51.698;-0.292;2023-03-17T04:10:15;7.57;;;1.50;;
76953;SDS011;65893;51.698;-0.292;2023-03-17T04:12:41;7.63;;;1.88;;
76953;SDS011;65893;51.698;-0.292;2023-03-17T04:15:08;4.78;;;1.70;;
76953;SDS011;65893;51.698;-0.292;2023-03-17T04:17:35;4.43;;;1.33;;
76953;SDS011;65893;51.698;-0.292;2023-03-17T04:20:01;5.63;;;1.42;;
76953;SDS011;65893;51.698;-0.292;2023-03-17T04:22:27;5.13;;;1.50;;
76953;SDS011;65893;51.698;-0.292;2023-03-17T04:24:53;9.52;;;1.92;;
76953;SDS011;65893;51.698;-0.292;2023-03-17T04:27:19;7.00;;;1.30;;
76953;SDS011;65893;51.698;-0.292;2023-03-17T04:29:45;7.53;;;1.70;;
76953;SDS011;65893;51.698;-0.292;2023-03-17T04:32:13;5.03;;;1.50;;
76953;SDS011;65893;51.698;-0.292;2023-03-17T04:34:39;9.40;;;1.63;;
76953;SDS011;65893;51.698;-0.292;2023-03-17T04:37:06;7.47;;;1.73;;
76953;SDS011;65893;51.698;-0.292;2023-03-17T04:39:32;4.00;;;1.60;;
76953;SDS011;65893;51.698;-0.292;2023-03-17T04:41:58;7.30;;;1.65;;
76953;SDS011;65893;51.698;-0.292;2023-03-17T04:44:25;6.95;;;2.38;;
76953;SDS011;65893;51.698;-0.292;2023-03-17T04:46:51;10.75;;;2.45;;
76953;SDS011;65893;51.698;-0.292;2023-03-17T04:49:17;10.15;;;1.63;;
76953;SDS011;65893;51.698;-0.292;2023-03-17T04:51:43;4.57;;;1.48;;
76953;SDS011;65893;51.698;-0.292;2023-03-17T04:54:09;8.27;;;1.70;;
76953;SDS011;65893;51.698;-0.292;2023-03-17T04:56:36;6.07;;;1.67;;
76953;SDS011;65893;51.698;-0.292;2023-03-17T04:59:02;9.35;;;2.05;;
76953;SDS011;65893;51.698;-0.292;2023-03-17T05:01:28;9.57;;;1.88;;
76953;SDS011;65893;51.698;-0.292;2023-03-17T05:03:54;5.72;;;2.00;;
76953;SDS011;65893;51.698;-0.292;2023-03-17T05:06:20;5.72;;;1.85;;
76953;SDS011;65893;51.698;-0.292;2023-03-17T05:08:46;5.57;;;1.48;;
76953;SDS011;65893;51.698;-0.292;2023-03-17T05:11:12;13.50;;;2.30;;
76953;SDS011;65893;51.698;-0.292;2023-03-17T05:13:39;6.38;;;2.00;;
76953;SDS011;65893;51.698;-0.292;2023-03-17T05:16:06;4.68;;;1.42;;
76953;SDS011;65893;51.698;-0.292;2023-03-17T05:18:32;4.75;;;1.65;;
76953;SDS011;65893;51.698;-0.292;2023-03-17T05:20:58;6.68;;;1.92;;
76953;SDS011;65893;51.698;-0.292;2023-03-17T05:23:25;7.07;;;2.40;;
76953;SDS011;65893;51.698;-0.292;2023-03-17T05:25:51;8.88;;;2.15;;
76953;SDS011;65893;51.698;-0.292;2023-03-17T05:28:21;9.57;;;2.28;;
76953;SDS011;65893;51.698;-0.292;2023-03-17T05:30:47;7.25;;;2.28;;
76953;SDS011;65893;51.698;-0.292;2023-03-17T05:33:17;5.72;;;2.00;;
76953;SDS011;65893;51.698;-0.292;2023-03-17T05:35:44;10.52;;;2.20;;
76953;SDS011;65893;51.698;-0.292;2023-03-17T05:38:11;5.10;;;1.67;;
76953;SDS011;65893;51.698;-0.292;2023-03-17T05:40:38;10.63;;;2.42;;
76953;SDS011;65893;51.698;-0.292;2023-03-17T05:43:08;5.68;;;2.10;;
76953;SDS011;65893;51.698;-0.292;2023-03-17T05:45:34;6.78;;;1.80;;
76953;SDS011;65893;51.698;-0.292;2023-03-17T05:48:01;10.57;;;2.40;;
76953;SDS011;65893;51.698;-0.292;2023-03-17T05:50:27;6.80;;;2.40;;
76953;SDS011;65893;51.698;-0.292;2023-03-17T05:52:53;9.40;;;4.25;;
76953;SDS011;65893;51.698;-0.292;2023-03-17T05:55:19;9.55;;;3.13;;
76953;SDS011;65893;51.698;-0.292;2023-03-17T05:57:45;8.82;;;3.20;;
76953;SDS011;65893;51.698;-0.292;2023-03-17T06:00:12;9.23;;;3.00;;
76953;SDS011;65893;51.698;-0.292;2023-03-17T06:02:40;10.15;;;3.67;;
76953;SDS011;65893;51.698;-0.292;2023-03-17T06:05:06;8.70;;;3.17;;
76953;SDS011;65893;51.698;-0.292;2023-03-17T06:07:33;9.95;;;2.92;;
76953;SDS011;65893;51.698;-0.292;2023-03-17T06:10:00;7.75;;;3.05;;
76953;SDS011;65893;51.698;-0.292;2023-03-17T06:12:26;10.52;;;3.55;;
76953;SDS011;65893;51.698;-0.292;2023-03-17T06:14:52;11.82;;;3.45;;
76953;SDS011;65893;51.698;-0.292;2023-03-17T06:17:18;10.55;;;3.72;;
76953;SDS011;65893;51.698;-0.292;2023-03-17T06:19:45;11.18;;;4.05;;
76953;SDS011;65893;51.698;-0.292;2023-03-17T06:22:11;11.95;;;4.28;;
76953;SDS011;65893;51.698;-0.292;2023-03-17T06:24:38;10.73;;;3.85;;
76953;SDS011;65893;51.698;-0.292;2023-03-17T06:27:05;10.23;;;3.42;;
76953;SDS011;65893;51.698;-0.292;2023-03-17T06:29:31;10.20;;;3.22;;
76953;SDS011;65893;51.698;-0.292;2023-03-17T06:31:57;14.05;;;3.72;;
76953;SDS011;65893;51.698;-0.292;2023-03-17T06:34:23;11.02;;;3.58;;
76953;SDS011;65893;51.698;-0.292;2023-03-17T06:36:49;11.68;;;3.70;;
76953;SDS011;65893;51.698;-0.292;2023-03-17T06:39:15;11.43;;;3.75;;
76953;SDS011;65893;51.698;-0.292;2023-03-17T06:41:45;9.85;;;3.60;;
76953;SDS011;65893;51.698;-0.292;2023-03-17T06:44:11;12.23;;;3.67;;
76953;SDS011;65893;51.698;-0.292;2023-03-17T06:46:37;8.63;;;3.22;;
76953;SDS011;65893;51.698;-0.292;2023-03-17T06:49:03;10.90;;;3.30;;
76953;SDS011;65893;51.698;-0.292;2023-03-17T06:51:29;8.85;;;3.13;;
76953;SDS011;65893;51.698;-0.292;2023-03-17T06:53:56;8.55;;;3.58;;
76953;SDS011;65893;51.698;-0.292;2023-03-17T06:56:22;8.45;;;2.92;;
76953;SDS011;65893;51.698;-0.292;2023-03-17T06:58:49;9.05;;;3.55;;
76953;SDS011;65893;51.698;-0.292;2023-03-17T07:01:16;10.23;;;2.97;;
76953;SDS011;65893;51.698;-0.292;2023-03-17T07:03:43;9.52;;;3.40;;
76953;SDS011;65893;51.698;-0.292;2023-03-17T07:06:09;11.90;;;3.33;;
76953;SDS011;65893;51.698;-0.292;2023-03-17T07:08:35;13.90;;;4.80;;
76953;SDS011;65893;51.698;-0.292;2023-03-17T07:11:01;10.93;;;3.35;;
76953;SDS011;65893;51.698;-0.292;2023-03-17T07:13:28;11.07;;;3.90;;
76953;SDS011;65893;51.698;-0.292;2023-03-17T07:15:59;8.98;;;4.18;;
76953;SDS011;65893;51.698;-0.292;2023-03-17T07:18:26;13.68;;;3.90;;
76953;SDS011;65893;51.698;-0.292;2023-03-17T07:20:56;10.32;;;4.10;;
76953;SDS011;65893;51.698;-0.292;2023-03-17T07:23:22;8.38;;;3.75;;
76953;SDS011;65893;51.698;-0.292;2023-03-17T07:25:48;12.20;;;4.43;;
76953;SDS011;65893;51.698;-0.292;2023-03-17T07:28:14;14.13;;;5.20;;
76953;SDS011;65893;51.698;-0.292;2023-03-17T07:30:41;12.60;;;6.15;;
76953;SDS011;65893;51.698;-0.292;2023-03-17T07:33:14;14.10;;;4.53;;
76953;SDS011;65893;51.698;-0.292;2023-03-17T07:35:41;13.50;;;6.03;;
76953;SDS011;65893;51.698;-0.292;2023-03-17T07:38:08;12.38;;;4.97;;
76953;SDS011;65893;51.698;-0.292;2023-03-17T07:40:34;20.85;;;6.55;;
76953;SDS011;65893;51.698;-0.292;2023-03-17T07:43:00;12.43;;;5.22;;
76953;SDS011;65893;51.698;-0.292;2023-03-17T07:45:26;17.15;;;6.60;;
76953;SDS011;65893;51.698;-0.292;2023-03-17T07:47:53;12.40;;;5.43;;
76953;SDS011;65893;51.698;-0.292;2023-03-17T07:50:19;13.55;;;5.80;;
76953;SDS011;65893;51.698;-0.292;2023-03-17T07:52:45;17.20;;;6.55;;
76953;SDS011;65893;51.698;-0.292;2023-03-17T07:55:11;14.32;;;6.30;;
76953;SDS011;65893;51.698;-0.292;2023-03-17T07:57:38;11.70;;;5.75;;
76953;SDS011;65893;51.698;-0.292;2023-03-17T08:00:04;12.85;;;5.65;;
76953;SDS011;65893;51.698;-0.292;2023-03-17T08:02:34;15.55;;;6.07;;
76953;SDS011;65893;51.698;-0.292;2023-03-17T08:05:00;12.57;;;5.05;;
76953;SDS011;65893;51.698;-0.292;2023-03-17T08:07:27;15.85;;;6.15;;
76953;SDS011;65893;51.698;-0.292;2023-03-17T08:09:53;14.50;;;5.63;;
76953;SDS011;65893;51.698;-0.292;2023-03-17T08:12:19;16.35;;;6.32;;
76953;SDS011;65893;51.698;-0.292;2023-03-17T08:14:46;15.38;;;6.35;;
76953;SDS011;65893;51.698;-0.292;2023-03-17T08:17:12;19.20;;;5.85;;
76953;SDS011;65893;51.698;-0.292;2023-03-17T08:19:38;15.70;;;5.70;;
76953;SDS011;65893;51.698;-0.292;2023-03-17T08:22:05;14.45;;;6.10;;
76953;SDS011;65893;51.698;-0.292;2023-03-17T08:24:31;16.67;;;6.30;;
76953;SDS011;65893;51.698;-0.292;2023-03-17T08:26:57;15.20;;;5.80;;
76953;SDS011;65893;51.698;-0.292;2023-03-17T08:29:23;15.20;;;5.70;;
76953;SDS011;65893;51.698;-0.292;2023-03-17T08:31:49;15.75;;;5.55;;
76953;SDS011;65893;51.698;-0.292;2023-03-17T08:34:15;14.27;;;5.78;;
76953;SDS011;65893;51.698;-0.292;2023-03-17T08:36:41;13.40;;;5.20;;
76953;SDS011;65893;51.698;-0.292;2023-03-17T08:39:07;9.63;;;4.85;;
76953;SDS011;65893;51.698;-0.292;2023-03-17T08:41:34;10.82;;;4.68;;
76953;SDS011;65893;51.698;-0.292;2023-03-17T08:44:01;13.77;;;4.55;;
76953;SDS011;65893;51.698;-0.292;2023-03-17T08:46:31;12.98;;;4.75;;
76953;SDS011;65893;51.698;-0.292;2023-03-17T08:48:57;14.90;;;6.47;;
76953;SDS011;65893;51.698;-0.292;2023-03-17T08:51:25;11.68;;;5.50;;
76953;SDS011;65893;51.698;-0.292;2023-03-17T08:53:52;14.52;;;5.55;;
76953;SDS011;65893;51.698;-0.292;2023-03-17T08:56:19;12.70;;;5.80;;
76953;SDS011;65893;51.698;-0.292;2023-03-17T08:58:45;14.48;;;5.78;;
76953;SDS011;65893;51.698;-0.292;2023-03-17T09:01:11;11.30;;;5.80;;
76953;SDS011;65893;51.698;-0.292;2023-03-17T09:03:38;14.68;;;6.15;;
76953;SDS011;65893;51.698;-0.292;2023-03-17T09:06:05;17.80;;;6.22;;
76953;SDS011;65893;51.698;-0.292;2023-03-17T09:08:34;15.65;;;6.53;;
76953;SDS011;65893;51.698;-0.292;2023-03-17T09:11:04;13.00;;;6.28;;
76953;SDS011;65893;51.698;-0.292;2023-03-17T09:13:31;16.52;;;6.30;;
76953;SDS011;65893;51.698;-0.292;2023-03-17T09:15:57;12.98;;;5.93;;
76953;SDS011;65893;51.698;-0.292;2023-03-17T09:18:23;15.15;;;6.05;;
76953;SDS011;65893;51.698;-0.292;2023-03-17T09:20:50;13.07;;;6.13;;
76953;SDS011;65893;51.698;-0.292;2023-03-17T09:23:16;14.60;;;6.13;;
76953;SDS011;65893;51.698;-0.292;2023-03-17T09:25:42;13.27;;;5.93;;
76953;SDS011;65893;51.698;-0.292;2023-03-17T09:28:10;15.27;;;6.95;;
76953;SDS011;65893;51.698;-0.292;2023-03-17T09:30:38;13.63;;;6.30;;
76953;SDS011;65893;51.698;-0.292;2023-03-17T09:33:05;15.40;;;5.60;;
76953;SDS011;65893;51.698;-0.292;2023-03-17T09:35:31;15.35;;;6.00;;
76953;SDS011;65893;51.698;-0.292;2023-03-17T09:37:57;19.98;;;6.95;;
76953;SDS011;65893;51.698;-0.292;2023-03-17T09:40:26;12.27;;;5.60;;
76953;SDS011;65893;51.698;-0.292;2023-03-17T09:45:38;20.00;;;6.97;;
76953;SDS011;65893;51.698;-0.292;2023-03-17T09:50:39;15.70;;;6.32;;
76953;SDS011;65893;51.698;-0.292;2023-03-17T09:53:11;13.70;;;6.15;;
76953;SDS011;65893;51.698;-0.292;2023-03-17T09:55:39;14.80;;;5.78;;
76953;SDS011;65893;51.698;-0.292;2023-03-17T09:58:07;15.05;;;6.53;;
76953;SDS011;65893;51.698;-0.292;2023-03-17T10:00:34;16.15;;;6.70;;
76953;SDS011;65893;51.698;-0.292;2023-03-17T10:03:00;13.85;;;5.78;;
76953;SDS011;65893;51.698;-0.292;2023-03-17T10:05:28;13.10;;;6.07;;
76953;SDS011;65893;51.698;-0.292;2023-03-17T10:10:41;12.52;;;5.60;;
76953;SDS011;65893;51.698;-0.292;2023-03-17T10:13:33;12.48;;;4.85;;
76953;SDS011;65893;51.698;-0.292;2023-03-17T10:16:03;9.93;;;4.35;;
76953;SDS011;65893;51.698;-0.292;2023-03-17T10:21:06;8.45;;;4.03;;
76953;SDS011;65893;51.698;-0.292;2023-03-17T10:23:33;10.32;;;4.47;;
76953;SDS011;65893;51.698;-0.292;2023-03-17T10:26:01;11.95;;;4.20;;
76953;SDS011;65893;51.698;-0.292;2023-03-17T10:28:31;9.93;;;4.15;;
76953;SDS011;65893;51.698;-0.292;2023-03-17T10:31:26;10.02;;;3.97;;
76953;SDS011;65893;51.698;-0.292;2023-03-17T10:33:49;10.63;;;4.00;;
76953;SDS011;65893;51.698;-0.292;2023-03-17T10:36:17;10.02;;;4.90;;
76953;SDS011;65893;51.698;-0.292;2023-03-17T10:38:56;11.45;;;4.00;;
76953;SDS011;65893;51.698;-0.292;2023-03-17T10:41:22;9.95;;;3.47;;
76953;SDS011;65893;51.698;-0.292;2023-03-17T10:43:49;9.40;;;4.57;;
76953;SDS011;65893;51.698;-0.292;2023-03-17T10:46:16;10.98;;;3.85;;
76953;SDS011;65893;51.698;-0.292;2023-03-17T10:48:43;8.93;;;4.50;;
76953;SDS011;65893;51.698;-0.292;2023-03-17T10:51:17;10.57;;;4.10;;
76953;SDS011;65893;51.698;-0.292;2023-03-17T10:53:45;8.27;;;3.65;;
76953;SDS011;65893;51.698;-0.292;2023-03-17T10:56:21;9.45;;;4.50;;
76953;SDS011;65893;51.698;-0.292;2023-03-17T10:58:49;10.00;;;3.33;;
76953;SDS011;65893;51.698;-0.292;2023-03-17T11:01:16;9.07;;;3.30;;
76953;SDS011;65893;51.698;-0.292;2023-03-17T11:03:46;9.27;;;3.47;;
76953;SDS011;65893;51.698;-0.292;2023-03-17T11:06:13;8.00;;;3.90;;
76953;SDS011;65893;51.698;-0.292;2023-03-17T11:11:21;8.40;;;3.72;;
76953;SDS011;65893;51.698;-0.292;2023-03-17T11:13:47;8.45;;;3.78;;
76953;SDS011;65893;51.698;-0.292;2023-03-17T11:16:20;9.07;;;4.38;;
76953;SDS011;65893;51.698;-0.292;2023-03-17T11:18:46;7.95;;;4.40;;
76953;SDS011;65893;51.698;-0.292;2023-03-17T11:21:26;11.82;;;4.38;;
76953;SDS011;65893;51.698;-0.292;2023-03-17T11:27:11;10.35;;;4.78;;
76953;SDS011;65893;51.698;-0.292;2023-03-17T11:32:24;9.23;;;4.15;;
76953;SDS011;65893;51.698;-0.292;2023-03-17T11:34:26;8.07;;;3.90;;
76953;SDS011;65893;51.698;-0.292;2023-03-17T11:37:11;8.85;;;4.18;;
76953;SDS011;65893;51.698;-0.292;2023-03-17T11:42:20;10.02;;;4.82;;
76953;SDS011;65893;51.698;-0.292;2023-03-17T11:44:54;10.32;;;4.07;;
76953;SDS011;65893;51.698;-0.292;2023-03-17T11:55:22;9.02;;;3.97;;
76953;SDS011;65893;51.698;-0.292;2023-03-17T12:00:23;9.30;;;4.40;;
76953;SDS011;65893;51.698;-0.292;2023-03-17T12:05:38;9.90;;;4.28;;
76953;SDS011;65893;51.698;-0.292;2023-03-17T12:10:37;9.75;;;4.45;;
76953;SDS011;65893;51.698;-0.292;2023-03-17T12:23:16;9.27;;;4.22;;
76953;SDS011;65893;51.698;-0.292;2023-03-17T12:25:56;10.07;;;2.95;;
76953;SDS011;65893;51.698;-0.292;2023-03-17T12:28:24;10.77;;;3.65;;
76953;SDS011;65893;51.698;-0.292;2023-03-17T12:30:55;7.68;;;3.42;;
76953;SDS011;65893;51.698;-0.292;2023-03-17T12:33:30;9.30;;;3.72;;
76953;SDS011;65893;51.698;-0.292;2023-03-17T12:36:00;10.23;;;3.35;;
76953;SDS011;65893;51.698;-0.292;2023-03-17T12:43:47;7.28;;;2.72;;
76953;SDS011;65893;51.698;-0.292;2023-03-17T12:54:04;19.13;;;5.82;;
76953;SDS011;65893;51.698;-0.292;2023-03-17T12:56:36;8.55;;;4.57;;
76953;SDS011;65893;51.698;-0.292;2023-03-17T12:59:12;24.67;;;6.00;;
76953;SDS011;65893;51.698;-0.292;2023-03-17T13:06:56;7.50;;;2.90;;
76953;SDS011;65893;51.698;-0.292;2023-03-17T13:09:32;9.52;;;3.65;;
76953;SDS011;65893;51.698;-0.292;2023-03-17T13:12:00;7.05;;;3.30;;
76953;SDS011;65893;51.698;-0.292;2023-03-17T13:14:46;6.43;;;2.30;;
76953;SDS011;65893;51.698;-0.292;2023-03-17T13:22:34;6.57;;;2.20;;
76953;SDS011;65893;51.698;-0.292;2023-03-17T13:25:34;6.20;;;2.42;;
76953;SDS011;65893;51.698;-0.292;2023-03-17T13:27:53;5.80;;;2.08;;
76953;SDS011;65893;51.698;-0.292;2023-03-17T13:33:35;4.68;;;1.67;;
76953;SDS011;65893;51.698;-0.292;2023-03-17T13:35:37;7.18;;;2.33;;
76953;SDS011;65893;51.698;-0.292;2023-03-17T13:49:02;5.32;;;2.38;;
76953;SDS011;65893;51.698;-0.292;2023-03-17T13:51:39;4.70;;;1.60;;
76953;SDS011;65893;51.698;-0.292;2023-03-17T13:54:13;6.72;;;1.50;;
76953;SDS011;65893;51.698;-0.292;2023-03-17T13:59:15;3.75;;;1.33;;
76953;SDS011;65893;51.698;-0.292;2023-03-17T14:01:50;5.35;;;1.25;;
76953;SDS011;65893;51.698;-0.292;2023-03-17T14:04:27;4.47;;;1.20;;
76953;SDS011;65893;51.698;-0.292;2023-03-17T14:06:56;5.90;;;1.30;;
76953;SDS011;65893;51.698;-0.292;2023-03-17T14:11:56;2.90;;;1.13;;
76953;SDS011;65893;51.698;-0.292;2023-03-17T14:17:10;6.47;;;1.38;;
76953;SDS011;65893;51.698;-0.292;2023-03-17T14:19:38;4.60;;;1.00;;
76953;SDS011;65893;51.698;-0.292;2023-03-17T14:22:23;5.03;;;1.30;;
76953;SDS011;65893;51.698;-0.292;2023-03-17T14:24:50;6.40;;;1.83;;
76953;SDS011;65893;51.698;-0.292;2023-03-17T14:27:17;3.70;;;1.00;;
76953;SDS011;65893;51.698;-0.292;2023-03-17T14:29:44;4.05;;;1.20;;
76953;SDS011;65893;51.698;-0.292;2023-03-17T14:32:22;6.10;;;1.42;;
76953;SDS011;65893;51.698;-0.292;2023-03-17T14:34:55;3.17;;;1.00;;
76953;SDS011;65893;51.698;-0.292;2023-03-17T14:37:22;4.35;;;1.38;;
76953;SDS011;65893;51.698;-0.292;2023-03-17T14:39:50;6.60;;;1.50;;
76953;SDS011;65893;51.698;-0.292;2023-03-17T14:42:17;3.55;;;1.17;;
76953;SDS011;65893;51.698;-0.292;2023-03-17T14:44:44;3.63;;;1.42;;
76953;SDS011;65893;51.698;-0.292;2023-03-17T14:47:22;6.40;;;1.30;;
76953;SDS011;65893;51.698;-0.292;2023-03-17T14:49:51;5.18;;;1.10;;
76953;SDS011;65893;51.698;-0.292;2023-03-17T14:52:23;3.90;;;1.20;;
76953;SDS011;65893;51.698;-0.292;2023-03-17T14:54:51;3.00;;;1.00;;
76953;SDS011;65893;51.698;-0.292;2023-03-17T14:57:27;3.80;;;1.00;;
76953;SDS011;65893;51.698;-0.292;2023-03-17T14:59:57;3.92;;;1.30;;
76953;SDS011;65893;51.698;-0.292;2023-03-17T15:02:31;3.42;;;1.15;;
76953;SDS011;65893;51.698;-0.292;2023-03-17T15:07:43;3.72;;;1.30;;
76953;SDS011;65893;51.698;-0.292;2023-03-17T15:10:16;2.72;;;1.05;;
76953;SDS011;65893;51.698;-0.292;2023-03-17T15:12:43;5.40;;;1.40;;
76953;SDS011;65893;51.698;-0.292;2023-03-17T15:15:22;5.45;;;1.20;;
76953;SDS011;65893;51.698;-0.292;2023-03-17T15:17:50;8.60;;;1.52;;
76953;SDS011;65893;51.698;-0.292;2023-03-17T15:20:16;3.97;;;1.17;;
76953;SDS011;65893;51.698;-0.292;2023-03-17T15:22:46;4.10;;;1.38;;
76953;SDS011;65893;51.698;-0.292;2023-03-17T15:27:45;5.57;;;1.20;;
76953;SDS011;65893;51.698;-0.292;2023-03-17T15:30:12;6.03;;;1.65;;
76953;SDS011;65893;51.698;-0.292;2023-03-17T15:32:38;5.97;;;1.40;;
76953;SDS011;65893;51.698;-0.292;2023-03-17T15:35:05;5.95;;;2.10;;
76953;SDS011;65893;51.698;-0.292;2023-03-17T15:37:32;5.93;;;1.73;;
76953;SDS011;65893;51.698;-0.292;2023-03-17T15:39:59;8.40;;;1.88;;
76953;SDS011;65893;51.698;-0.292;2023-03-17T15:42:29;6.63;;;1.75;;
76953;SDS011;65893;51.698;-0.292;2023-03-17T15:44:56;5.53;;;1.55;;
76953;SDS011;65893;51.698;-0.292;2023-03-17T15:47:25;8.23;;;1.42;;
76953;SDS011;65893;51.698;-0.292;2023-03-17T15:49:53;4.88;;;1.30;;
76953;SDS011;65893;51.698;-0.292;2023-03-17T15:52:21;7.50;;;2.55;;
76953;SDS011;65893;51.698;-0.292;2023-03-17T15:54:52;6.05;;;1.67;;
76953;SDS011;65893;51.698;-0.292;2023-03-17T15:57:21;5.63;;;1.85;;
76953;SDS011;65893;51.698;-0.292;2023-03-17T15:59:47;11.15;;;2.47;;
76953;SDS011;65893;51.698;-0.292;2023-03-17T16:02:20;4.93;;;1.27;;
76953;SDS011;65893;51.698;-0.292;2023-03-17T16:04:47;8.70;;;1.90;;
76953;SDS011;65893;51.698;-0.292;2023-03-17T16:07:13;6.25;;;1.33;;
76953;SDS011;65893;51.698;-0.292;2023-03-17T16:09:39;4.07;;;1.52;;
76953;SDS011;65893;51.698;-0.292;2023-03-17T16:12:07;4.97;;;1.48;;
76953;SDS011;65893;51.698;-0.292;2023-03-17T16:14:34;10.32;;;1.85;;
76953;SDS011;65893;51.698;-0.292;2023-03-17T16:17:00;5.22;;;1.60;;
76953;SDS011;65893;51.698;-0.292;2023-03-17T16:19:27;6.43;;;1.65;;
76953;SDS011;65893;51.698;-0.292;2023-03-17T16:21:53;8.52;;;1.77;;